Time;durP1;ratioP1;P1;durP2;ratioP2;P2;SDS_P1;SDS_P2;PMS_P1;PMS_P2;Temp;Humidity;BMP_temperature;BMP_pressure;BME280_temperature;BME280_humidity;BME280_pressure;Samples;Min_cycle;Max_cycle;Signal;HPM_P1;HPM_P2
2023/08/14 00:02:21;;;;;;;8.10;5.80;;;;;;;21.83;59.75;100622.60;111194;1254;21958;-81
2023/08/14 00:04:54;;;;;;;6.80;6.10;;;;;;;21.86;59.71;100619.77;111393;1254;21968;-81
2023/08/14 00:07:47;;;;;;;8.40;5.20;;;;;;;21.84;59.66;100620.62;111331;1250;23033;-81
2023/08/14 00:10:28;;;;;;;5.70;5.20;;;;;;;21.81;59.68;100620.29;111418;1255;21929;-80
2023/08/14 00:13:09;;;;;;;6.90;5.40;;;;;;;21.82;59.77;100621.52;111375;1254;22721;-83
2023/08/14 00:15:42;;;;;;;9.80;5.10;;;;;;;21.82;59.76;100620.96;110688;1259;22454;-81
2023/08/14 00:18:19;;;;;;;6.90;5.20;;;;;;;21.81;59.75;100617.98;110506;1265;21873;-83
2023/08/14 00:20:57;;;;;;;5.70;5.10;;;;;;;21.83;59.82;100620.31;110551;1266;22432;-83
2023/08/14 00:23:36;;;;;;;6.40;4.70;;;;;;;21.85;59.72;100622.47;110118;1266;22692;-82
2023/08/14 00:26:32;;;;;;;5.00;4.50;;;;;;;21.84;59.71;100622.50;110465;1266;21995;-81
2023/08/14 00:29:12;;;;;;;8.40;5.10;;;;;;;21.85;59.70;100625.80;110373;1265;22329;-83
2023/08/14 00:31:54;;;;;;;8.20;5.20;;;;;;;21.88;59.68;100625.45;110182;1266;22977;-84
2023/08/14 00:34:33;;;;;;;5.30;4.80;;;;;;;21.90;59.67;100628.59;110767;1260;22276;-82
2023/08/14 00:37:14;;;;;;;5.60;4.70;;;;;;;21.93;59.61;100636.01;111202;1254;21979;-81
2023/08/14 00:39:57;;;;;;;6.40;5.80;;;;;;;21.96;59.54;100637.02;111561;1254;22439;-83
2023/08/14 00:42:35;;;;;;;6.20;5.30;;;;;;;21.98;59.47;100639.48;111495;1254;23671;-84
2023/08/14 00:45:12;;;;;;;6.60;5.50;;;;;;;21.99;59.22;100636.38;111335;1254;21976;-80
2023/08/14 00:47:56;;;;;;;5.30;4.70;;;;;;;22.00;59.29;100643.75;111409;1254;22007;-81
2023/08/14 00:50:47;;;;;;;6.60;5.20;;;;;;;22.00;59.33;100641.14;111490;1254;21995;-81
2023/08/14 00:53:38;;;;;;;8.00;5.60;;;;;;;22.00;59.38;100638.42;111176;1243;22705;-81
2023/08/14 00:56:12;;;;;;;6.90;5.00;;;;;;;22.01;59.35;100642.98;111485;1254;21979;-83
2023/08/14 00:58:51;;;;;;;6.10;5.00;;;;;;;22.01;59.22;100644.42;110780;1260;21953;-82
2023/08/14 01:01:23;;;;;;;6.30;5.10;;;;;;;22.00;59.36;100646.59;110157;1267;22437;-81
2023/08/14 01:04:05;;;;;;;6.20;5.20;;;;;;;22.00;59.41;100651.95;109806;1267;23801;-81
2023/08/14 01:06:42;;;;;;;7.70;5.00;;;;;;;21.98;59.37;100651.05;110014;1268;23623;-80
2023/08/14 01:09:22;;;;;;;7.20;5.70;;;;;;;21.96;59.36;100642.88;110308;1267;21987;-81
2023/08/14 01:12:18;;;;;;;9.00;5.10;;;;;;;21.95;59.35;100641.48;110101;1266;22118;-83
2023/08/14 01:15:00;;;;;;;14.30;6.00;;;;;;;21.92;59.46;100635.52;110110;1267;22162;-83
2023/08/14 01:17:47;;;;;;;16.20;5.80;;;;;;;21.93;59.54;100634.92;110749;1260;22737;-82
2023/08/14 01:20:38;;;;;;;7.00;5.50;;;;;;;21.94;59.66;100635.73;110978;1259;22513;-81
2023/08/14 01:23:49;;;;;;;8.40;5.70;;;;;;;21.93;59.56;100636.85;110899;1259;24269;-80
2023/08/14 01:26:29;;;;;;;8.50;5.30;;;;;;;21.91;59.68;100638.68;110713;1260;23584;-80
2023/08/14 01:28:59;;;;;;;9.20;5.40;;;;;;;21.90;59.57;100636.23;110106;1268;22005;-81
2023/08/14 01:31:39;;;;;;;6.10;5.50;;;;;;;21.89;59.50;100632.95;109556;1272;22524;-79
2023/08/14 01:34:18;;;;;;;8.30;5.70;;;;;;;21.86;59.47;100631.96;109786;1270;22506;-79
2023/08/14 01:37:13;;;;;;;5.40;4.80;;;;;;;21.84;59.74;100636.92;109666;1272;21977;-82
2023/08/14 01:39:51;;;;;;;9.40;5.70;;;;;;;21.81;59.71;100642.09;109681;1272;22002;-81
2023/08/14 01:42:36;;;;;;;8.10;5.30;;;;;;;21.79;59.73;100639.23;109470;1272;22109;-81
2023/08/14 01:45:18;;;;;;;12.30;6.10;;;;;;;21.75;59.74;100636.54;109525;1271;21987;-81
2023/08/14 01:47:49;;;;;;;5.60;4.80;;;;;;;21.71;59.74;100629.94;110134;1265;22127;-81
2023/08/14 01:50:35;;;;;;;7.60;4.90;;;;;;;21.71;59.78;100626.44;110160;1265;21978;-80
2023/08/14 01:53:17;;;;;;;8.00;4.80;;;;;;;21.65;59.85;100624.40;109470;1272;22064;-82
2023/08/14 01:55:47;;;;;;;12.00;5.40;;;;;;;21.64;60.00;100624.33;109668;1271;21998;-80
2023/08/14 01:58:21;;;;;;;6.80;4.00;;;;;;;21.63;60.02;100623.23;109650;1271;21992;-81
2023/08/14 02:00:54;;;;;;;9.30;4.90;;;;;;;21.59;60.08;100620.85;109660;1271;21982;-80
2023/08/14 02:03:25;;;;;;;10.70;5.70;;;;;;;21.55;60.10;100613.36;109978;1265;21996;-83
2023/08/14 02:06:05;;;;;;;7.40;5.40;;;;;;;21.48;60.26;100612.52;110621;1263;23777;-81
2023/08/14 02:08:34;;;;;;;7.20;4.90;;;;;;;21.41;60.35;100617.08;109971;1266;23732;-82
2023/08/14 02:11:17;;;;;;;5.50;4.80;;;;;;;21.34;60.53;100618.19;110339;1260;22189;-83
2023/08/14 02:13:53;;;;;;;6.00;5.40;;;;;;;21.30;60.78;100614.77;110337;1265;21977;-82
2023/08/14 02:16:31;;;;;;;8.50;5.40;;;;;;;21.28;61.01;100612.65;110368;1265;21994;-83
2023/08/14 02:19:05;;;;;;;5.90;5.30;;;;;;;21.28;61.05;100612.80;110402;1265;22321;-83
2023/08/14 02:21:44;;;;;;;7.10;5.70;;;;;;;21.26;61.16;100614.38;110219;1261;21960;-84
2023/08/14 02:24:20;;;;;;;10.50;6.60;;;;;;;21.24;61.15;100615.61;110276;1265;21994;-83
2023/08/14 02:26:56;;;;;;;11.70;6.10;;;;;;;21.21;61.27;100618.48;110209;1265;21993;-83
2023/08/14 02:29:41;;;;;;;7.40;5.30;;;;;;;21.22;61.33;100621.98;109574;1267;21986;-82
2023/08/14 02:32:15;;;;;;;10.10;7.30;;;;;;;21.19;61.56;100614.55;109518;1271;22055;-81
2023/08/14 02:35:07;;;;;;;9.70;6.80;;;;;;;21.20;61.59;100608.14;110325;1267;21945;-84
2023/08/14 02:37:39;;;;;;;8.20;5.70;;;;;;;21.20;61.65;100606.52;110271;1268;21979;-83
2023/08/14 02:40:14;;;;;;;6.30;5.70;;;;;;;21.19;61.61;100612.77;109535;1272;22467;-82
2023/08/14 02:42:52;;;;;;;7.70;5.00;;;;;;;21.17;61.72;100612.75;109457;1272;22456;-84
2023/08/14 02:45:35;;;;;;;10.80;6.30;;;;;;;21.18;61.89;100611.30;108964;1278;21980;-83
2023/08/14 02:48:15;;;;;;;12.20;6.50;;;;;;;21.20;61.80;100610.63;109310;1271;21987;-84
2023/08/14 02:50:47;;;;;;;7.30;6.10;;;;;;;21.19;61.87;100608.08;109845;1267;22279;-83
2023/08/14 02:53:21;;;;;;;11.40;5.60;;;;;;;21.18;62.03;100612.90;110222;1267;23696;-83
2023/08/14 02:56:02;;;;;;;9.70;5.60;;;;;;;21.20;62.07;100617.71;109786;1260;23049;-83
2023/08/14 02:58:40;;;;;;;11.20;6.70;;;;;;;21.21;62.07;100619.39;109850;1266;24276;-83
2023/08/14 03:01:19;;;;;;;14.10;7.20;;;;;;;21.24;62.10;100622.67;110333;1266;23699;-83
2023/08/14 03:03:54;;;;;;;;;;;;;;;21.25;62.14;100623.13;109966;1271;21990;-84
2023/08/14 03:06:25;;;;;;;11.70;7.80;;;;;;;21.15;62.36;100619.45;109937;1269;21994;-83
2023/08/14 03:08:59;;;;;;;13.80;10.10;;;;;;;21.13;62.27;100622.50;110063;1269;22033;-83
2023/08/14 03:11:29;;;;;;;;;;;;;;;21.12;62.31;100623.27;110492;1264;21970;-81
2023/08/14 03:13:59;;;;;;;9.70;8.60;;;;;;;20.99;62.68;100623.02;110679;1260;21967;-83
2023/08/14 03:16:39;;;;;;;10.60;7.90;;;;;;;20.99;62.69;100625.50;110333;1265;21966;-82
2023/08/14 03:19:14;;;;;;;9.20;8.10;;;;;;;21.00;62.76;100619.39;110486;1265;21966;-82
2023/08/14 03:21:51;;;;;;;9.90;8.70;;;;;;;21.00;62.72;100619.92;110401;1261;22176;-81
2023/08/14 03:24:20;;;;;;;8.30;7.50;;;;;;;20.99;62.71;100620.52;110912;1260;21978;-80
2023/08/14 03:26:58;;;;;;;9.10;8.00;;;;;;;20.97;62.74;100624.60;110416;1262;22336;-82
2023/08/14 03:29:34;;;;;;;12.10;9.30;;;;;;;20.95;62.99;100630.38;110449;1269;23736;-82
2023/08/14 03:32:09;;;;;;;9.50;8.10;;;;;;;20.94;63.09;100631.55;110055;1267;21987;-79
2023/08/14 03:34:57;;;;;;;15.60;13.60;;;;;;;20.92;63.15;100629.23;110500;1262;22525;-81
2023/08/14 03:37:31;;;;;;;11.60;9.50;;;;;;;20.89;63.27;100626.65;111032;1261;21964;-82
2023/08/14 03:40:12;;;;;;;;;;;;;;;20.86;63.46;100626.54;110515;1265;22994;-82
2023/08/14 03:42:55;;;;;;;17.40;8.80;;;;;;;20.75;63.86;100628.59;110721;1266;22012;-81
2023/08/14 03:45:29;;;;;;;21.40;12.00;;;;;;;20.75;63.79;100633.03;110851;1260;23040;-81
2023/08/14 03:47:58;;;;;;;14.30;10.30;;;;;;;20.76;63.90;100627.67;111024;1254;23640;-81
2023/08/14 03:50:27;;;;;;;15.90;10.30;;;;;;;20.78;64.05;100623.58;111065;1259;24734;-81
2023/08/14 03:53:16;;;;;;;;;;;;;;;;;;;;;
2023/08/14 03:56:12;;;;;;;18.60;9.60;;;;;;;20.73;64.13;100614.21;111017;1259;21963;-80
2023/08/14 03:58:52;;;;;;;10.20;8.10;;;;;;;20.72;64.32;100608.49;111102;1254;21949;-80
2023/08/14 04:01:37;;;;;;;10.90;7.90;;;;;;;20.70;64.59;100609.84;111379;1254;21974;-81
2023/08/14 04:04:28;;;;;;;10.40;7.60;;;;;;;20.72;64.89;100609.92;111408;1254;23017;-81
2023/08/14 04:07:20;;;;;;;;;;;;;;;;;;;;;
2023/08/14 04:10:08;;;;;;;8.60;7.80;;;;;;;20.67;65.50;100610.95;111174;1260;21981;-81
2023/08/14 04:13:00;;;;;;;8.60;7.70;;;;;;;20.73;65.64;100610.73;110522;1266;22030;-81
2023/08/14 04:15:40;;;;;;;13.10;8.40;;;;;;;20.79;65.61;100614.33;110371;1267;21975;-81
2023/08/14 04:18:28;;;;;;;19.10;8.60;;;;;;;20.82;65.69;100608.95;110499;1266;21997;-81
2023/08/14 04:21:09;;;;;;;12.40;8.90;;;;;;;20.86;65.67;100614.26;110415;1267;23626;-80
2023/08/14 04:23:50;;;;;;;11.50;7.50;;;;;;;20.92;65.74;100611.70;110581;1266;21975;-82
2023/08/14 04:26:33;;;;;;;11.10;8.10;;;;;;;21.00;65.76;100615.73;109630;1271;22063;-82
2023/08/14 04:29:19;;;;;;;8.20;7.00;;;;;;;21.06;65.84;100615.03;110349;1266;22158;-81
2023/08/14 04:31:55;;;;;;;8.90;7.00;;;;;;;21.12;65.91;100621.65;110876;1259;21970;-81
2023/08/14 04:34:30;;;;;;;8.00;7.20;;;;;;;21.20;65.97;100625.25;111266;1255;21931;-81
2023/08/14 04:37:02;;;;;;;10.10;7.70;;;;;;;21.30;65.96;100626.69;111102;1259;22407;-82
2023/08/14 04:39:49;;;;;;;8.10;7.10;;;;;;;21.37;65.87;100628.56;111060;1260;24370;-81
2023/08/14 04:42:22;;;;;;;12.80;7.10;;;;;;;21.45;65.60;100627.30;111061;1259;22980;-82
2023/08/14 04:44:52;;;;;;;9.90;7.00;;;;;;;21.51;65.41;100618.10;111121;1254;23115;-81
2023/08/14 04:47:20;;;;;;;9.10;7.30;;;;;;;21.61;65.55;100620.52;111561;1255;21951;-81
2023/08/14 04:49:52;;;;;;;10.00;7.80;;;;;;;21.70;65.33;100627.79;111503;1254;21956;-81
2023/08/14 04:52:24;;;;;;;8.70;7.40;;;;;;;21.74;65.09;100625.81;111281;1254;21962;-81
2023/08/14 04:55:06;;;;;;;12.80;7.50;;;;;;;21.77;64.96;100623.67;111492;1254;21978;-81
2023/08/14 04:57:41;;;;;;;9.20;7.90;;;;;;;21.81;64.98;100627.09;111490;1242;23033;-80
2023/08/14 05:00:25;;;;;;;8.10;7.20;;;;;;;21.83;64.88;100629.36;111103;1259;21961;-82
2023/08/14 05:03:16;;;;;;;17.20;8.80;;;;;;;21.85;65.06;100633.64;110739;1259;22893;-83
2023/08/14 05:05:59;;;;;;;15.50;8.60;;;;;;;21.92;65.09;100633.61;110961;1259;22686;-83
2023/08/14 05:08:43;;;;;;;7.90;7.10;;;;;;;21.99;65.21;100637.63;110887;1259;22922;-83
2023/08/14 05:11:18;;;;;;;8.50;7.70;;;;;;;22.16;65.25;100638.77;110910;1259;22036;-82
2023/08/14 05:13:47;;;;;;;9.70;7.10;;;;;;;22.27;65.16;100639.80;110661;1266;21979;-81
2023/08/14 05:16:21;;;;;;;15.20;7.20;;;;;;;22.39;64.84;100645.56;109707;1270;23009;-82
2023/08/14 05:18:56;;;;;;;9.90;7.50;;;;;;;22.50;64.57;100643.44;109415;1273;22981;-82
2023/08/14 05:21:25;;;;;;;10.50;7.40;;;;;;;22.59;64.17;100642.64;109685;1272;23725;-83
2023/08/14 05:23:58;;;;;;;8.80;6.90;;;;;;;22.67;64.14;100640.22;109722;1272;22043;-86
2023/08/14 05:26:36;;;;;;;9.90;7.50;;;;;;;22.79;64.26;100643.27;109699;1271;21977;-81
2023/08/14 05:29:07;;;;;;;10.00;7.50;;;;;;;22.93;63.91;100645.15;109948;1270;23693;-80
2023/08/14 05:31:45;;;;;;;8.00;7.20;;;;;;;23.01;63.58;100643.96;109865;1267;21989;-78
2023/08/14 05:34:37;;;;;;;9.10;7.40;;;;;;;23.08;63.38;100644.23;110477;1261;22006;-78
2023/08/14 05:37:10;;;;;;;10.10;7.40;;;;;;;23.20;63.33;100641.10;111099;1255;21977;-79
2023/08/14 05:39:43;;;;;;;7.70;7.00;;;;;;;23.30;63.06;100643.56;110989;1255;23580;-79
2023/08/14 05:42:15;;;;;;;9.00;7.50;;;;;;;23.41;62.90;100643.50;111330;1255;21989;-79
2023/08/14 05:44:44;;;;;;;9.80;7.60;;;;;;;23.48;62.49;100646.11;111298;1255;21984;-79
2023/08/14 05:47:27;;;;;;;9.50;8.10;;;;;;;23.56;62.58;100647.71;111255;1255;21977;-78
2023/08/14 05:49:56;;;;;;;9.00;7.80;;;;;;;23.70;62.59;100650.34;111433;1255;23605;-78
2023/08/14 05:52:36;;;;;;;9.20;8.20;;;;;;;23.82;62.03;100652.92;111173;1254;21954;-77
2023/08/14 05:55:06;;;;;;;8.90;8.10;;;;;;;23.98;62.25;100645.86;111304;1254;21972;-77
2023/08/14 05:57:50;;;;;;;9.50;7.30;;;;;;;24.22;62.17;100643.14;111110;1255;21960;-79
2023/08/14 06:00:30;;;;;;;11.30;7.70;;;;;;;24.48;62.03;100643.04;110771;1259;21977;-80
2023/08/14 06:03:08;;;;;;;25.30;8.50;;;;;;;24.76;60.97;100646.75;110695;1259;23799;-81
2023/08/14 06:05:48;;;;;;;12.10;7.70;;;;;;;24.93;60.00;100647.65;110948;1259;21990;-78
2023/08/14 06:08:16;;;;;;;11.20;7.00;;;;;;;25.12;60.03;100652.28;110848;1259;23744;-78
2023/08/14 06:11:27;;;;;;;9.90;6.80;;;;;;;25.38;59.40;100656.09;110684;1259;22895;-77
2023/08/14 06:14:03;;;;;;;8.50;6.70;;;;;;;25.54;58.65;100648.81;110550;1259;21976;-77
2023/08/14 06:16:50;;;;;;;8.40;6.90;;;;;;;25.64;58.02;100653.21;110643;1259;22999;-81
2023/08/14 06:19:58;;;;;;;13.00;7.50;;;;;;;25.80;58.08;100655.39;111390;1254;21953;-79
2023/08/14 06:22:43;;;;;;;8.80;6.30;;;;;;;26.00;58.02;100654.00;110569;1261;22002;-79
2023/08/14 06:25:28;;;;;;;9.50;7.20;;;;;;;26.27;57.74;100657.08;110667;1261;23583;-80
2023/08/14 06:29:19;;;;;;;9.10;6.30;;;;;;;26.63;57.53;100657.45;110534;1261;22398;-77
2023/08/14 06:32:36;;;;;;;11.50;6.60;;;;;;;27.09;56.24;100664.02;110170;1266;23732;-79
2023/08/14 06:35:17;;;;;;;10.60;6.20;;;;;;;27.33;54.66;100668.89;110104;1266;21982;-86
2023/08/14 06:37:57;;;;;;;8.60;6.30;;;;;;;27.36;53.62;100665.13;110079;1266;22106;-80
2023/08/14 06:40:38;;;;;;;12.30;7.30;;;;;;;27.29;53.63;100665.52;109898;1262;23590;-79
2023/08/14 06:47:37;;;;;;;8.40;6.80;;;;;;;26.86;53.67;100664.58;109355;1272;21980;-76
2023/08/14 06:50:55;;;;;;;7.20;6.50;;;;;;;26.72;54.96;100671.85;109118;1273;22743;-79
2023/08/14 06:53:48;;;;;;;10.10;6.90;;;;;;;26.82;55.51;100675.84;109169;1273;21980;-77
2023/08/14 06:56:21;;;;;;;11.90;7.20;;;;;;;27.05;55.46;100679.71;109215;1273;21988;-76
2023/08/14 06:59:40;;;;;;;9.40;7.50;;;;;;;27.17;54.49;100684.64;109210;1273;21960;-78
2023/08/14 07:02:49;;;;;;;10.00;7.10;;;;;;;27.07;54.12;100683.98;108770;1278;22468;-78
2023/08/14 07:05:56;;;;;;;;;;;;;;;;;;;;;
2023/08/14 07:08:58;;;;;;;11.20;6.80;;;;;;;26.98;54.77;100688.85;108447;1277;23685;-78
2023/08/14 07:12:05;;;;;;;9.40;7.10;;;;;;;26.97;54.70;100691.85;108614;1280;22032;-77
2023/08/14 07:14:57;;;;;;;11.20;8.00;;;;;;;26.93;54.76;100691.16;108576;1280;23731;-77
2023/08/14 07:18:18;;;;;;;9.50;6.30;;;;;;;26.97;55.24;100693.33;108650;1280;22105;-77
2023/08/14 07:21:42;;;;;;;7.50;6.80;;;;;;;27.19;55.85;100696.36;109255;1271;23602;-77
2023/08/14 07:24:40;;;;;;;12.40;6.60;;;;;;;27.64;55.33;100694.40;109671;1265;23027;-82
2023/08/14 07:27:17;;;;;;;9.50;6.70;;;;;;;27.88;53.46;100692.61;110402;1259;23785;-83
2023/08/14 07:30:02;;;;;;;10.00;6.70;;;;;;;27.89;52.84;100691.63;110385;1262;21975;-80
2023/08/14 07:32:49;;;;;;;8.90;7.20;;;;;;;28.01;53.24;100696.73;110226;1263;21962;-78
2023/08/14 07:35:59;;;;;;;7.60;6.00;;;;;;;28.13;52.87;100699.13;110255;1250;21979;-81
2023/08/14 07:43:24;;;;;;;;;;;;;;;;;;;;;
2023/08/14 07:46:40;;;;;;;6.90;4.60;;;;;;;29.19;50.98;100708.52;108976;1275;22767;-80
2023/08/14 07:49:40;;;;;;;20.30;5.50;;;;;;;29.62;50.79;100701.99;109486;1267;21971;-80
2023/08/14 07:52:16;;;;;;;6.60;5.20;;;;;;;30.03;49.66;100707.92;109009;1273;23702;-79
2023/08/14 07:55:51;;;;;;;8.80;4.70;;;;;;;30.44;48.65;100703.36;109244;1273;23701;-80
2023/08/14 07:58:28;;;;;;;18.30;5.50;;;;;;;30.74;47.68;100701.33;108818;1273;377768;-83
2023/08/14 08:01:24;;;;;;;12.50;5.00;;;;;;;30.73;46.65;100703.42;109320;1268;22726;-79
2023/08/14 08:04:06;;;;;;;6.90;4.20;;;;;;;30.56;46.85;100703.39;109707;1268;23054;-77
2023/08/14 08:06:46;;;;;;;8.30;4.40;;;;;;;30.48;47.39;100700.55;109060;1274;22027;-79
2023/08/14 08:09:48;;;;;;;7.50;4.30;;;;;;;30.69;48.20;100697.95;108961;1274;23066;-79
2023/08/14 08:12:33;;;;;;;11.40;4.00;;;;;;;31.12;47.42;100699.13;109100;1267;21981;-78
2023/08/14 08:15:20;;;;;;;12.60;4.10;;;;;;;31.58;46.74;100701.25;109958;1267;21988;-77
2023/08/14 08:18:06;;;;;;;5.20;3.90;;;;;;;31.82;44.82;100699.20;110383;1261;22011;-80
2023/08/14 08:21:29;;;;;;;4.70;3.60;;;;;;;31.76;44.02;100700.42;110541;1261;22039;-78
2023/08/14 08:24:42;;;;;;;6.80;3.90;;;;;;;31.70;44.54;100697.33;110853;1254;23014;-78
2023/08/14 08:27:22;;;;;;;11.80;3.70;;;;;;;31.89;44.83;100693.20;111352;1254;21957;-79
2023/08/14 08:29:56;;;;;;;5.00;3.30;;;;;;;32.27;44.03;100695.05;110994;1254;23803;-80
2023/08/14 08:32:39;;;;;;;3.40;2.90;;;;;;;32.44;43.23;100690.90;111254;1254;21956;-76
2023/08/14 08:35:21;;;;;;;6.30;3.30;;;;;;;32.45;42.51;100689.70;110984;1255;22733;-79
2023/08/14 08:37:58;;;;;;;5.20;2.40;;;;;;;32.30;42.36;100690.84;111128;1254;23732;-79
2023/08/14 08:40:40;;;;;;;12.50;4.30;;;;;;;32.27;43.09;100693.66;111160;1254;21959;-79
2023/08/14 08:43:21;;;;;;;26.40;8.10;;;;;;;32.43;43.33;100696.86;111240;1254;21964;-78
2023/08/14 08:46:09;;;;;;;6.70;4.30;;;;;;;32.60;42.56;100701.08;111128;1254;21961;-79
2023/08/14 08:49:03;;;;;;;9.60;3.60;;;;;;;32.58;42.07;100703.12;111098;1251;23015;-78
2023/08/14 08:51:51;;;;;;;9.40;4.30;;;;;;;32.35;41.76;100705.10;111322;1254;22329;-77
2023/08/14 08:54:28;;;;;;;11.40;10.30;;;;;;;32.08;42.54;100699.08;110977;1254;21996;-78
2023/08/14 08:57:20;;;;;;;7.90;3.80;;;;;;;31.91;42.77;100698.77;110628;1260;23589;-78
2023/08/14 09:00:14;;;;;;;4.80;3.90;;;;;;;31.81;42.87;100697.09;110560;1260;23724;-78
2023/08/14 09:03:26;;;;;;;4.10;3.00;;;;;;;31.70;43.06;100697.23;110473;1260;21968;-80
2023/08/14 09:10:01;;;;;;;4.00;3.30;;;;;;;31.71;43.43;100690.27;108970;1275;24373;-79
2023/08/14 09:13:12;;;;;;;6.40;3.10;;;;;;;31.87;43.63;100686.10;108870;1278;21990;-80
2023/08/14 09:17:05;;;;;;;;;;;;;;;;;;;;;
2023/08/14 09:21:47;;;;;;;;;;;;;;;;;;;;;
2023/08/14 09:25:51;;;;;;;;;;;;;;;;;;;;;
2023/08/14 09:29:52;;;;;;;3.60;2.70;;;;;;;32.61;40.46;100678.52;108014;1292;21972;-78
2023/08/14 09:34:05;;;;;;;;;;;;;;;;;;;;;
2023/08/14 09:37:03;;;;;;;4.40;2.40;;;;;;;32.67;40.28;100672.86;107659;1295;22472;-79
2023/08/14 09:40:39;;;;;;;5.80;2.90;;;;;;;32.67;40.18;100673.13;107202;1297;22015;-80
2023/08/14 09:44:40;;;;;;;2.90;2.10;;;;;;;32.77;40.08;100674.25;107246;1300;22036;-80
2023/08/14 09:47:34;;;;;;;3.00;2.50;;;;;;;32.80;39.59;100674.15;107448;1296;22785;-78
2023/08/14 09:50:30;;;;;;;4.70;3.20;;;;;;;32.84;39.54;100674.67;108036;1295;22468;-81
2023/08/14 09:53:58;;;;;;;2.70;2.30;;;;;;;33.03;39.04;100672.27;107525;1294;548096;-78
2023/08/14 09:56:31;;;;;;;69.10;9.80;;;;;;;32.90;39.37;100667.64;109757;1266;23041;-78
2023/08/14 09:59:03;;;;;;;7.60;3.20;;;;;;;32.83;39.58;100667.14;109345;1269;22964;-78
2023/08/14 10:01:44;;;;;;;5.40;2.80;;;;;;;32.64;39.81;100668.85;109643;1267;23783;-78
2023/08/14 10:04:23;;;;;;;4.90;2.20;;;;;;;32.42;40.09;100666.02;110040;1266;23741;-78
2023/08/14 10:06:58;;;;;;;30.10;5.80;;;;;;;32.30;40.45;100662.96;110107;1264;135706;-80
2023/08/14 10:09:31;;;;;;;12.40;4.20;;;;;;;32.28;40.78;100674.02;110309;1262;21970;-78
2023/08/14 10:12:08;;;;;;;9.90;5.60;;;;;;;32.25;40.43;100671.05;110391;1264;21986;-79
2023/08/14 10:14:50;;;;;;;5.70;3.20;;;;;;;32.20;40.72;100672.38;109893;1266;22144;-79
2023/08/14 10:17:56;;;;;;;5.20;2.90;;;;;;;32.17;40.43;100673.77;110477;1261;23268;-77
2023/08/14 10:20:40;;;;;;;4.00;2.60;;;;;;;32.17;40.10;100674.75;109843;1268;23046;-77
2023/08/14 10:23:11;;;;;;;6.00;2.70;;;;;;;32.10;40.49;100675.05;109781;1268;22011;-78
2023/08/14 10:25:51;;;;;;;4.60;2.50;;;;;;;32.11;40.59;100671.86;109389;1270;22690;-77
2023/08/14 10:28:27;;;;;;;7.30;2.50;;;;;;;32.08;40.37;100668.43;109174;1271;22275;-78
2023/08/14 10:31:02;;;;;;;4.60;2.30;;;;;;;32.05;40.59;100668.56;108935;1276;23052;-80
2023/08/14 10:33:31;;;;;;;5.80;2.60;;;;;;;32.04;40.75;100665.17;109212;1272;22106;-79
2023/08/14 10:36:03;;;;;;;5.90;3.00;;;;;;;32.06;40.74;100658.06;108937;1275;22025;-79
2023/08/14 10:38:44;;;;;;;3.20;2.50;;;;;;;32.15;40.80;100658.95;108909;1275;21969;-77
2023/08/14 10:41:16;;;;;;;6.00;2.10;;;;;;;32.15;40.28;100662.36;108797;1278;21988;-77
2023/08/14 10:43:56;;;;;;;2.60;2.00;;;;;;;32.01;39.99;100658.65;108866;1274;23720;-79
2023/08/14 10:46:24;;;;;;;3.20;2.40;;;;;;;31.99;40.31;100658.92;108822;1278;22004;-77
2023/08/14 10:48:52;;;;;;;3.00;2.00;;;;;;;32.01;39.53;100659.77;108851;1274;23688;-78
2023/08/14 10:51:34;;;;;;;6.70;1.40;;;;;;;32.04;39.51;100657.71;109208;1273;21987;-80
2023/08/14 10:54:15;;;;;;;7.70;2.40;;;;;;;32.04;38.66;100661.15;109054;1272;21938;-78
2023/08/14 10:56:49;;;;;;;;;;;;;;;32.01;38.72;100661.06;109325;1263;22129;-78
2023/08/14 10:59:28;;;;;;;4.10;2.10;;;;;;;31.97;39.23;100662.02;110658;1257;22132;-78
2023/08/14 11:02:16;;;;;;;5.40;2.00;;;;;;;32.03;39.18;100655.95;110740;1257;22029;-77
2023/08/14 11:05:13;;;;;;;4.60;2.30;;;;;;;32.00;39.09;100656.58;110944;1255;23703;-78
2023/08/14 11:07:41;;;;;;;24.00;21.70;;;;;;;31.95;38.80;100656.92;111113;1255;23785;-79
2023/08/14 11:10:15;;;;;;;6.70;3.00;;;;;;;31.83;39.07;100657.77;110985;1255;21961;-78
2023/08/14 11:12:44;;;;;;;4.90;3.50;;;;;;;31.78;39.24;100658.63;111009;1255;22981;-79
2023/08/14 11:15:12;;;;;;;6.40;2.30;;;;;;;31.76;38.76;100654.55;111159;1255;21981;-79
2023/08/14 11:17:53;;;;;;;2.90;2.10;;;;;;;31.68;38.39;100650.89;110955;1255;21967;-77
2023/08/14 11:20:22;;;;;;;;;;;;;;;31.65;38.81;100651.10;110433;1261;21951;-79
2023/08/14 11:22:50;;;;;;;3.80;2.30;;;;;;;31.60;39.12;100645.42;110515;1248;23079;-79
2023/08/14 11:25:20;;;;;;;5.00;2.50;;;;;;;31.66;39.08;100646.76;109915;1267;22013;-76
2023/08/14 11:27:55;;;;;;;5.90;2.60;;;;;;;31.69;38.95;100650.60;109820;1267;22017;-78
2023/08/14 11:30:36;;;;;;;7.20;2.70;;;;;;;31.62;39.10;100648.52;109297;1272;21985;-77
2023/08/14 11:33:10;;;;;;;7.30;2.70;;;;;;;31.58;39.10;100646.73;109077;1272;22736;-79
2023/08/14 11:35:43;;;;;;;21.90;19.60;;;;;;;31.60;39.55;100645.02;109365;1271;22033;-78
2023/08/14 11:38:17;;;;;;;10.20;4.00;;;;;;;31.70;40.01;100643.81;109246;1268;21988;-77
2023/08/14 11:40:46;;;;;;;4.50;3.00;;;;;;;31.74;39.83;100645.94;109770;1268;21980;-80
2023/08/14 11:43:16;;;;;;;3.20;2.20;;;;;;;31.72;39.49;100646.73;109782;1264;22032;-78
2023/08/14 11:45:44;;;;;;;6.10;3.40;;;;;;;31.65;39.62;100641.92;110131;1264;21972;-79
2023/08/14 11:48:13;;;;;;;8.20;2.80;;;;;;;31.60;39.84;100640.63;110346;1260;22797;-77
2023/08/14 11:50:48;;;;;;;7.60;3.00;;;;;;;31.68;40.12;100639.01;110515;1260;21964;-76
2023/08/14 11:53:24;;;;;;;9.00;3.80;;;;;;;31.78;40.11;100641.41;110162;1264;22329;-77
2023/08/14 11:56:21;;;;;;;;;;;;;;;;;;;;;
2023/08/14 11:59:22;;;;;;;5.60;2.60;;;;;;;31.68;39.91;100642.02;110595;1261;23191;-78
2023/08/14 12:02:04;;;;;;;4.80;3.30;;;;;;;31.69;39.73;100636.70;109772;1267;22763;-80
2023/08/14 12:05:26;;;;;;;4.10;2.80;;;;;;;31.74;39.77;100632.35;110054;1267;21976;-77
2023/08/14 12:08:49;;;;;;;4.00;2.30;;;;;;;31.84;40.12;100637.86;109735;1271;21980;-78
2023/08/14 12:12:01;;;;;;;2.80;2.00;;;;;;;31.88;39.34;100637.59;109919;1267;21980;-80
2023/08/14 12:15:07;;;;;;;5.90;3.80;;;;;;;31.91;39.41;100629.88;109854;1268;22011;-77
2023/08/14 12:18:05;;;;;;;5.80;3.10;;;;;;;31.96;39.42;100627.86;109334;1271;22763;-78
2023/08/14 12:21:01;;;;;;;3.20;2.60;;;;;;;31.94;38.79;100629.70;109816;1267;21972;-79
2023/08/14 12:24:18;;;;;;;;;;;;;;;;;;;;;
2023/08/14 12:27:30;;;;;;;3.50;2.60;;;;;;;31.99;39.21;100620.99;109930;1267;22734;-78
2023/08/14 12:31:11;;;;;;;3.90;2.40;;;;;;;32.07;38.91;100621.23;110068;1267;21970;-77
2023/08/14 12:34:27;;;;;;;;;;;;;;;;;;;;;
2023/08/14 12:37:15;;;;;;;3.40;2.50;;;;;;;32.19;37.59;100622.67;109210;1271;22259;-78
2023/08/14 12:40:23;;;;;;;3.10;2.30;;;;;;;32.13;37.27;100620.16;109132;1273;23789;-79
2023/08/14 12:43:24;;;;;;;;;;;;;;;;;;;;;
2023/08/14 12:46:17;;;;;;;4.00;3.00;;;;;;;32.18;38.23;100611.54;109201;1274;21979;-77
2023/08/14 12:49:45;;;;;;;;;;;;;;;;;;;;;
2023/08/14 12:53:04;;;;;;;;;;;;;;;;;;;;;
2023/08/14 12:55:48;;;;;;;21.20;6.60;;;;;;;32.31;37.59;100605.62;108430;1283;22000;-77
2023/08/14 12:58:56;;;;;;;7.30;3.10;;;;;;;32.45;37.59;100603.46;108683;1279;23826;-77
2023/08/14 13:02:01;;;;;;;3.70;2.40;;;;;;;32.56;37.59;100601.08;108741;1279;22024;-80
2023/08/14 13:04:47;;;;;;;2.90;2.30;;;;;;;32.62;37.35;100600.91;109091;1274;21985;-78
2023/08/14 13:07:31;;;;;;;5.20;2.50;;;;;;;32.62;36.92;100599.51;109216;1273;21990;-79
2023/08/14 13:10:19;;;;;;;4.40;3.10;;;;;;;32.58;36.46;100598.46;109250;1271;23621;-80
2023/08/14 13:13:23;;;;;;;;;;;;;;;;;;;;;
2023/08/14 13:16:49;;;;;;;;;;;;;;;;;;;;;
2023/08/14 13:19:38;;;;;;;2.60;2.30;;;;;;;32.45;36.73;100590.37;109304;1269;22004;-81
2023/08/14 13:22:42;;;;;;;6.10;3.20;;;;;;;32.43;36.76;100589.48;109598;1273;21971;-80